Terminal Aerodrome Forecast
Issued by NWS

Home | Current Version | Previous Version | Text Only | Print | Product List | Glossary On
Versions: 1 2 3 4 5 6 7 8 9 10 11 12 13 14
000
FTUS42 KTAE 111120
TAFVLD
TAF
KVLD 111120Z 1112/1212 05006KT P6SM BKN050
     FM111400 10006KT P6SM BKN050
     FM120900 00000KT 1SM BR OVC004=

USA.gov is the U.S. government's official web portal to all federal, state and local government web resources and services.